James, Mississippi
Current Conditions -  °F | °C
As of 11:53 AM on Friday 24 Oct 2014 (Local Time) from KGLH Reporting Station
Clear Clear  
Wind Chill: 67°   Ceiling: Unl
Heat Index: 67°   Visibility: 10mi
Dew Point: 43°   Wind: 5mph
Humidity: 42%   Direction: NA
Pressure: 30.16"   Gusts: NA
Location:  33.1785°N, 90.8086°W
Report Text: KGLH 241653Z AUTO VRB04KT 10SM CLR 19/06 A3016 RMK AO2 SLP219 T01940061
Loading
Personal Weather Stations






























Interactive Weather Map
Tropical Storm Tracking
New forecast layout! Learn more

10-Day Weather Forecast

Advertisements
Track Severe Weather on mobile